Time;durP1;ratioP1;P1;durP2;ratioP2;P2;SDS_P1;SDS_P2;PMS_P1;PMS_P2;Temp;Humidity;BMP_temperature;BMP_pressure;BME280_temperature;BME280_humidity;BME280_pressure;Samples;Min_cycle;Max_cycle;Signal;HPM_P1;HPM_P2
2022/04/17 00:00:04;;;;;;;14.38;8.75;;;;;;;11.61;68.94;100688.16;4938222;28;20096;-82
2022/04/17 00:02:29;;;;;;;11.80;8.20;;;;;;;11.77;68.90;100729.56;4955416;28;20035;-83
2022/04/17 00:04:59;;;;;;;13.13;8.63;;;;;;;11.70;68.50;100698.91;4954904;28;20086;-82
2022/04/17 00:07:25;;;;;;;12.68;8.30;;;;;;;11.78;68.66;100732.09;4925314;29;20290;-83
2022/04/17 00:09:51;;;;;;;13.55;8.80;;;;;;;11.80;68.70;100735.47;4921393;28;20050;-85
2022/04/17 00:12:17;;;;;;;13.85;8.57;;;;;;;11.82;68.38;100735.28;4960375;28;20047;-84
2022/04/17 00:14:43;;;;;;;11.80;8.35;;;;;;;11.79;68.64;100744.53;4935967;28;20071;-85
2022/04/17 00:17:11;;;;;;;14.48;8.30;;;;;;;11.67;68.69;100720.81;4965973;28;20093;-85
2022/04/17 00:19:37;;;;;;;12.65;7.90;;;;;;;11.71;68.46;100741.00;4931395;29;20115;-86
2022/04/17 00:22:08;;;;;;;11.60;8.40;;;;;;;11.70;68.85;100750.09;4948814;28;20057;-83
2022/04/17 00:24:35;;;;;;;12.68;7.75;;;;;;;11.84;68.52;100752.13;4969021;28;20042;-84
2022/04/17 00:27:01;;;;;;;12.15;8.18;;;;;;;11.74;68.45;100746.06;4942405;28;20512;-83
2022/04/17 00:29:27;;;;;;;10.90;7.88;;;;;;;11.82;68.70;100748.75;4919756;29;20084;-82
2022/04/17 00:31:56;;;;;;;15.10;7.88;;;;;;;11.74;68.76;100751.44;4932212;28;20062;-81
2022/04/17 00:34:23;;;;;;;13.38;7.78;;;;;;;11.68;68.59;100730.56;4937120;29;20039;-83
2022/04/17 00:36:49;;;;;;;13.52;7.50;;;;;;;11.56;68.98;100722.78;4958497;28;20066;-83
2022/04/17 00:39:16;;;;;;;11.88;7.57;;;;;;;11.84;68.47;100735.97;4937003;29;20064;-83
2022/04/17 00:41:42;;;;;;;11.25;7.55;;;;;;;11.70;68.95;100731.25;4933571;28;20411;-82
2022/04/17 00:44:14;;;;;;;13.50;7.60;;;;;;;11.64;69.13;100726.53;4935543;29;20047;-82
2022/04/17 00:46:50;;;;;;;10.85;7.45;;;;;;;11.59;69.37;100737.81;4929368;29;20027;-81
2022/04/17 00:49:20;;;;;;;10.75;7.43;;;;;;;11.74;68.78;100773.00;4932263;29;20086;-81
2022/04/17 00:51:46;;;;;;;11.15;7.57;;;;;;;11.62;69.04;100767.09;4932535;29;20472;-82
2022/04/17 00:54:13;;;;;;;13.05;7.40;;;;;;;11.79;68.45;100776.88;4936260;29;20070;-82
2022/04/17 00:56:42;;;;;;;10.90;7.38;;;;;;;11.62;68.85;100767.09;4922817;29;20041;-81
2022/04/17 00:59:09;;;;;;;12.48;7.30;;;;;;;11.71;68.97;100779.56;4944395;29;20071;-82
2022/04/17 01:01:36;;;;;;;9.60;7.13;;;;;;;11.64;68.45;100757.00;4930936;28;20113;-81
2022/04/17 01:04:02;;;;;;;11.38;7.13;;;;;;;11.82;68.45;100778.38;4940469;29;20031;-83
2022/04/17 01:06:31;;;;;;;10.82;7.05;;;;;;;11.69;68.91;100775.34;4933647;28;20057;-82
2022/04/17 01:08:58;;;;;;;10.70;7.72;;;;;;;11.70;69.00;100793.19;4938815;29;20046;-81
2022/04/17 01:11:24;;;;;;;12.82;7.18;;;;;;;11.75;68.79;100790.81;4942901;28;20419;-82
2022/04/17 01:13:52;;;;;;;11.95;7.10;;;;;;;11.71;68.82;100784.09;4922427;29;20039;-82
2022/04/17 01:16:17;;;;;;;11.70;7.55;;;;;;;11.69;69.26;100786.97;4939636;28;20033;-82
2022/04/17 01:19:01;;;;;;;11.73;7.30;;;;;;;11.82;68.98;100783.75;4954541;28;20373;-82
2022/04/17 01:21:29;;;;;;;10.85;7.70;;;;;;;11.72;69.01;100766.94;4944720;28;20404;-82
2022/04/17 01:26:56;;;;;;;11.90;7.50;;;;;;;11.62;68.93;100722.13;4935510;29;20471;-82
2022/04/17 01:29:25;;;;;;;12.65;7.50;;;;;;;11.66;69.37;100743.34;4933855;29;20042;-82
2022/04/17 01:31:51;;;;;;;10.48;7.30;;;;;;;11.51;69.81;100740.47;4925450;29;20126;-82
2022/04/17 01:34:16;;;;;;;;;;;;;;;11.55;69.84;100723.81;4918903;29;20476;-85
2022/04/17 01:36:46;;;;;;;11.73;7.25;;;;;;;11.52;69.81;100697.22;4926936;29;19914;-82
2022/04/17 01:39:13;;;;;;;15.45;8.27;;;;;;;11.49;70.10;100708.31;4914977;29;20476;-81
2022/04/17 01:41:39;;;;;;;15.38;8.00;;;;;;;11.45;70.12;100696.22;4954149;28;20042;-81
2022/04/17 01:44:05;;;;;;;14.68;8.20;;;;;;;11.34;70.21;100673.13;4945098;29;20039;-83
2022/04/17 01:46:33;;;;;;;11.48;8.05;;;;;;;11.49;70.33;100686.78;4919562;29;20054;-83
2022/04/17 01:48:59;;;;;;;16.08;8.60;;;;;;;11.48;70.43;100679.72;4952248;29;20043;-82
2022/04/17 01:51:26;;;;;;;13.77;8.55;;;;;;;11.52;70.30;100659.53;4928370;29;20129;-81
2022/04/17 01:53:52;;;;;;;13.90;8.98;;;;;;;11.43;70.52;100665.91;4937312;29;20427;-83
2022/04/17 01:56:18;;;;;;;12.65;9.25;;;;;;;11.36;70.86;100672.97;4925294;29;20051;-81
2022/04/17 01:58:44;;;;;;;11.88;8.50;;;;;;;11.41;71.00;100692.16;4917059;29;20138;-82
2022/04/17 02:01:10;;;;;;;13.55;9.10;;;;;;;11.44;70.98;100697.19;4920217;29;20046;-83
2022/04/17 02:03:36;;;;;;;16.48;9.15;;;;;;;11.32;71.24;100672.44;4921517;29;20035;-82
2022/04/17 02:06:06;;;;;;;17.77;9.73;;;;;;;11.37;71.27;100690.78;4956968;28;20039;-84
2022/04/17 02:08:32;;;;;;;16.05;9.80;;;;;;;11.39;71.02;100707.63;4935457;29;20315;-83
2022/04/17 02:10:57;;;;;;;19.58;9.35;;;;;;;11.30;71.19;100708.63;4938688;28;20034;-82
2022/04/17 02:13:24;;;;;;;14.75;9.25;;;;;;;11.33;70.81;100713.66;4909627;29;20547;-81
2022/04/17 02:15:53;;;;;;;13.38;10.25;;;;;;;11.39;70.95;100731.84;4918949;28;20815;-81
2022/04/17 02:18:24;;;;;;;12.82;9.32;;;;;;;11.42;70.73;100728.81;4942252;29;20036;-81
2022/04/17 02:20:50;;;;;;;16.17;10.23;;;;;;;11.35;70.93;100735.88;4932769;29;20106;-81
2022/04/17 02:23:15;;;;;;;14.88;10.40;;;;;;;11.36;70.94;100742.97;4922002;29;20040;-81
2022/04/17 02:25:42;;;;;;;14.13;9.48;;;;;;;11.33;70.86;100743.25;4952277;28;20035;-80
2022/04/17 02:28:08;;;;;;;15.55;9.70;;;;;;;11.39;70.92;100745.31;4935957;29;20110;-81
2022/04/17 02:30:34;;;;;;;13.63;9.70;;;;;;;11.29;70.92;100723.09;4935222;28;20491;-81
2022/04/17 02:33:00;;;;;;;14.45;9.70;;;;;;;11.37;70.87;100728.47;4958123;28;20039;-80
2022/04/17 02:35:25;;;;;;;12.98;9.57;;;;;;;11.25;70.93;100735.19;4938302;28;20039;-81
2022/04/17 02:37:51;;;;;;;13.32;9.60;;;;;;;11.34;71.05;100756.56;4936918;29;20435;-79
2022/04/17 02:40:16;;;;;;;15.45;10.30;;;;;;;11.36;71.05;100759.94;4954428;28;20072;-81
2022/04/17 02:42:43;;;;;;;14.02;10.10;;;;;;;11.32;71.17;100761.28;4964909;28;20519;-80
2022/04/17 02:45:10;;;;;;;;;;;;;;;11.41;70.98;100754.06;4937214;28;20074;-81
2022/04/17 02:47:45;;;;;;;12.70;8.98;;;;;;;11.25;71.47;100725.25;4951580;28;20355;-81
2022/04/17 02:50:16;;;;;;;14.98;9.45;;;;;;;11.26;71.35;100742.25;4922401;29;20074;-81
2022/04/17 02:52:41;;;;;;;15.05;9.10;;;;;;;11.14;71.63;100750.63;4934183;29;20106;-81
2022/04/17 02:55:09;;;;;;;13.88;8.93;;;;;;;11.10;71.52;100749.25;4923546;28;20046;-80
2022/04/17 02:57:35;;;;;;;18.52;8.27;;;;;;;11.19;71.41;100759.06;4945441;29;20475;-81
2022/04/17 03:00:01;;;;;;;13.25;8.57;;;;;;;11.19;71.52;100761.75;4951828;28;20071;-79
2022/04/17 03:08:16;;;;;;;13.75;7.63;;;;;;;11.02;71.84;100757.28;4874153;29;20077;-80
2022/04/17 03:10:43;;;;;;;14.30;7.90;;;;;;;10.99;71.74;100749.53;4854555;29;20155;-81
2022/04/17 03:13:08;;;;;;;;;;;;;;;11.01;71.82;100771.75;4906715;29;20567;-79
2022/04/17 03:15:34;;;;;;;12.77;7.28;;;;;;;10.88;71.86;100749.81;4937239;28;20016;-80
2022/04/17 03:18:02;;;;;;;12.63;7.22;;;;;;;11.06;71.72;100780.19;4923261;29;20071;-79
2022/04/17 03:20:28;;;;;;;11.75;7.00;;;;;;;10.99;71.80;100779.13;4920002;28;20488;-82
2022/04/17 03:22:54;;;;;;;11.02;6.95;;;;;;;10.92;71.92;100761.97;4944528;28;20039;-82
2022/04/17 03:25:40;;;;;;;9.02;6.82;;;;;;;10.88;72.05;100777.56;4946455;28;20082;-82
2022/04/17 03:28:06;;;;;;;11.18;7.15;;;;;;;10.75;72.19;100771.78;4961641;28;20827;-81
2022/04/17 03:30:34;;;;;;;12.10;7.60;;;;;;;10.77;71.97;100772.47;4955802;28;20161;-80
2022/04/17 03:33:02;;;;;;;12.05;6.97;;;;;;;10.87;71.87;100789.34;4946888;29;20496;-81
2022/04/17 03:35:28;;;;;;;10.77;7.05;;;;;;;10.90;71.75;100799.78;4924601;28;20027;-80
2022/04/17 03:37:55;;;;;;;9.23;6.03;;;;;;;10.95;71.03;100805.50;4936029;29;20031;-82
2022/04/17 03:40:40;;;;;;;8.98;5.40;;;;;;;10.86;70.96;100808.31;4939571;28;20058;-82
2022/04/17 03:43:07;;;;;;;10.07;5.60;;;;;;;10.97;70.62;100816.13;4962497;28;20035;-81
2022/04/17 03:45:52;;;;;;;12.00;5.25;;;;;;;10.88;70.50;100812.53;4941034;28;20302;-81
2022/04/17 03:48:18;;;;;;;11.13;5.32;;;;;;;10.82;70.69;100823.94;4939656;29;20046;-81
2022/04/17 03:50:44;;;;;;;11.23;5.03;;;;;;;10.55;70.63;100816.84;4940160;28;20026;-79
2022/04/17 03:53:10;;;;;;;8.48;4.93;;;;;;;10.40;71.12;100805.00;4935656;29;20035;-80
2022/04/17 03:55:36;;;;;;;13.40;4.97;;;;;;;10.29;71.26;100822.19;4938455;28;20050;-82
2022/04/17 03:58:03;;;;;;;12.13;5.50;;;;;;;10.28;71.10;100829.44;4952048;28;20035;-80
2022/04/17 04:00:49;;;;;;;7.13;4.90;;;;;;;10.19;71.04;100816.03;4951450;28;20039;-81
2022/04/17 04:03:17;;;;;;;8.80;4.77;;;;;;;10.10;71.00;100831.25;4919764;28;20050;-82
2022/04/17 04:05:43;;;;;;;19.50;6.20;;;;;;;10.03;71.29;100824.78;4926523;28;20294;-81
2022/04/17 04:08:09;;;;;;;12.00;5.40;;;;;;;10.00;71.15;100823.25;4930679;29;20507;-83
2022/04/17 04:10:35;;;;;;;12.70;6.47;;;;;;;9.96;71.68;100839.84;4921026;28;20131;-84
2022/04/17 04:13:01;;;;;;;13.90;6.30;;;;;;;9.97;71.03;100825.41;4938099;29;20043;-83
2022/04/17 04:15:27;;;;;;;11.23;6.20;;;;;;;10.01;70.98;100853.66;4943938;28;20529;-82
2022/04/17 04:17:53;;;;;;;9.95;6.25;;;;;;;10.06;70.29;100843.28;4931347;29;20062;-90
2022/04/17 04:20:19;;;;;;;10.35;6.65;;;;;;;10.02;70.55;100852.63;4938442;28;20069;-83
2022/04/17 04:22:49;;;;;;;11.57;6.35;;;;;;;9.99;70.23;100842.19;4938217;29;20059;-82
2022/04/17 04:25:16;;;;;;;9.35;6.13;;;;;;;9.96;70.31;100845.22;4926797;28;20069;-83
2022/04/17 04:30:28;;;;;;;9.10;5.63;;;;;;;9.89;70.32;100861.91;4939642;28;20066;-82
2022/04/17 04:32:56;;;;;;;10.52;6.13;;;;;;;9.78;70.36;100869.34;4928464;28;20070;-84
2022/04/17 04:35:21;;;;;;;10.30;5.60;;;;;;;9.72;70.55;100862.75;4963926;28;20487;-81
2022/04/17 04:37:49;;;;;;;8.27;5.57;;;;;;;9.79;70.33;100871.88;4938747;29;20046;-81
2022/04/17 04:40:16;;;;;;;9.18;5.40;;;;;;;9.75;70.17;100870.50;4940276;28;20046;-85
2022/04/17 04:43:01;;;;;;;9.05;5.28;;;;;;;9.57;70.93;100872.28;4946710;29;20035;-85
2022/04/17 04:48:14;;;;;;;10.65;5.10;;;;;;;9.57;71.17;100877.66;4939481;29;20054;-84
2022/04/17 04:50:42;;;;;;;11.20;5.35;;;;;;;9.61;70.81;100868.31;4928042;28;20054;-86
2022/04/17 04:53:08;;;;;;;10.75;5.03;;;;;;;9.55;70.95;100869.72;4930623;28;20037;-84
2022/04/17 04:55:35;;;;;;;9.27;5.20;;;;;;;9.57;70.91;100873.13;4944294;28;20058;-88
2022/04/17 04:58:01;;;;;;;8.00;4.68;;;;;;;9.50;71.06;100893.50;4945057;29;20046;-88
2022/04/17 05:00:27;;;;;;;9.68;5.05;;;;;;;9.29;71.15;100859.72;4929316;28;20046;-90
2022/04/17 05:02:53;;;;;;;11.13;4.68;;;;;;;9.49;71.14;100881.09;4949744;28;20539;-88
2022/04/17 05:05:18;;;;;;;9.10;4.70;;;;;;;9.45;71.23;100887.72;4942945;28;20034;-85
2022/04/17 05:07:46;;;;;;;7.67;4.83;;;;;;;9.33;71.23;100880.88;4947616;29;20357;-89
2022/04/17 05:10:14;;;;;;;9.82;4.90;;;;;;;9.24;71.43;100864.66;4922199;28;20046;-89
2022/04/17 05:12:41;;;;;;;8.13;5.00;;;;;;;9.27;71.01;100866.19;4929466;28;20061;-91
2022/04/17 05:15:11;;;;;;;;;;;;;;;9.43;70.68;100898.59;4936666;28;20123;-89
2022/04/17 05:17:37;;;;;;;9.02;5.28;;;;;;;9.44;70.39;100900.31;4955469;28;19933;-89
2022/04/17 05:20:05;;;;;;;8.25;5.85;;;;;;;9.22;71.53;100900.66;4931421;28;20474;-89
2022/04/17 05:22:36;;;;;;;8.23;5.50;;;;;;;9.03;71.52;100872.06;4899875;29;20064;-90
2022/04/17 05:25:03;;;;;;;9.75;5.60;;;;;;;9.20;71.49;100897.28;4930760;28;20043;-90
2022/04/17 05:27:29;;;;;;;8.55;5.53;;;;;;;9.13;71.52;100906.91;4931570;29;20035;-91
2022/04/17 05:29:54;;;;;;;9.07;5.30;;;;;;;9.20;71.30;100906.19;4924639;29;20039;-89
2022/04/17 05:32:23;;;;;;;8.73;5.05;;;;;;;9.03;71.43;100902.41;4925412;28;20671;-90
2022/04/17 05:34:52;;;;;;;9.48;5.43;;;;;;;9.01;71.67;100900.88;4953782;29;20054;-86
2022/04/17 05:37:21;;;;;;;9.30;5.75;;;;;;;8.96;71.79;100893.25;4959316;29;20039;-89
2022/04/17 05:39:51;;;;;;;9.75;6.10;;;;;;;8.96;71.14;100900.47;4932430;29;20034;-90
2022/04/17 05:42:17;;;;;;;10.05;5.80;;;;;;;8.91;70.68;100876.75;4925586;28;20081;-89
2022/04/17 05:44:42;;;;;;;8.73;6.20;;;;;;;8.93;70.44;100882.00;4936408;28;20067;-87
2022/04/17 05:47:09;;;;;;;10.00;6.10;;;;;;;8.88;69.95;100893.16;4922210;29;20044;-84
2022/04/17 05:49:37;;;;;;;12.27;6.07;;;;;;;8.57;70.94;100896.00;4933640;29;20558;-86
2022/04/17 05:52:09;;;;;;;9.55;6.40;;;;;;;8.69;70.70;100910.13;4919282;29;20046;-90
2022/04/17 05:54:43;;;;;;;9.07;6.38;;;;;;;8.61;71.61;100902.75;4924016;29;20111;-86
2022/04/17 05:57:11;;;;;;;10.32;6.40;;;;;;;8.52;71.54;100895.59;4962145;28;20118;-84
2022/04/17 05:59:42;;;;;;;10.38;6.35;;;;;;;8.45;71.28;100900.69;4917519;29;20051;-86
2022/04/17 06:02:13;;;;;;;7.90;6.03;;;;;;;8.58;72.39;100886.97;4937084;29;20117;-84
2022/04/17 06:04:39;;;;;;;10.32;5.65;;;;;;;8.52;70.45;100887.56;4936952;29;20060;-90
2022/04/17 06:07:06;;;;;;;8.02;5.65;;;;;;;8.46;69.82;100872.03;4935269;29;20047;-86
2022/04/17 06:09:35;;;;;;;9.85;6.20;;;;;;;8.41;70.30;100874.31;4920063;29;20039;-87
2022/04/17 06:12:04;;;;;;;10.57;6.40;;;;;;;8.31;70.89;100889.47;4952956;28;20369;-86
2022/04/17 06:14:29;;;;;;;9.20;6.05;;;;;;;8.35;71.12;100898.94;4937829;29;20050;-88
2022/04/17 06:16:57;;;;;;;11.90;6.32;;;;;;;8.32;71.30;100909.94;4955202;29;20097;-87
2022/04/17 06:19:45;;;;;;;9.68;6.90;;;;;;;8.22;71.80;100889.34;4954460;29;20106;-87
2022/04/17 06:22:18;;;;;;;12.18;7.13;;;;;;;8.33;71.47;100892.88;4937544;29;20066;-86
2022/04/17 06:24:54;;;;;;;10.98;7.18;;;;;;;8.30;71.77;100887.81;4954435;29;20046;-87
2022/04/17 06:30:42;;;;;;;9.75;7.45;;;;;;;8.54;70.46;100896.28;4973792;28;20065;-88
2022/04/17 06:33:08;;;;;;;;;;;;;;;8.53;70.77;100886.56;4951782;29;20035;-86
2022/04/17 06:35:35;;;;;;;;;;;;;;;8.40;70.64;100896.72;4921098;29;19918;-88
2022/04/17 06:38:02;;;;;;;9.32;6.70;;;;;;;8.28;71.11;100903.16;4924552;29;19939;-87
2022/04/17 06:40:36;;;;;;;11.43;7.03;;;;;;;8.23;71.38;100904.44;4905196;29;20488;-88
2022/04/17 06:43:08;;;;;;;9.20;7.13;;;;;;;8.09;71.21;100880.75;4955036;29;20027;-87
2022/04/17 06:45:38;;;;;;;9.95;6.63;;;;;;;8.19;70.56;100910.19;4921459;29;20024;-87
2022/04/17 06:48:34;;;;;;;11.30;7.18;;;;;;;8.27;70.22;100944.34;4920758;29;20110;-87
2022/04/17 06:54:24;;;;;;;12.38;8.32;;;;;;;8.22;69.87;100961.69;4876153;29;20056;-87
2022/04/17 06:56:49;;;;;;;8.93;5.70;;;;;;;8.04;70.11;100972.19;4860387;29;20076;-87
2022/04/17 06:59:15;;;;;;;11.13;5.63;;;;;;;8.14;70.15;100990.97;4881486;29;20072;-88
2022/04/17 07:01:43;;;;;;;8.95;5.80;;;;;;;8.03;70.30;100989.25;4893750;29;20114;-86
2022/04/17 07:04:09;;;;;;;9.07;5.88;;;;;;;8.11;70.22;101012.66;4940104;29;20039;-87
2022/04/17 07:06:39;;;;;;;14.70;5.70;;;;;;;8.11;70.16;101012.66;4931738;29;20409;-88
2022/04/17 07:09:09;;;;;;;9.48;5.85;;;;;;;8.18;70.73;101007.63;4920986;29;20484;-84
2022/04/17 07:11:38;;;;;;;8.02;5.45;;;;;;;8.28;69.96;101023.72;4957239;29;20043;-91
2022/04/17 07:14:03;;;;;;;7.47;5.05;;;;;;;8.12;70.42;101024.22;4923864;29;20028;-87
2022/04/17 07:16:32;;;;;;;7.45;5.38;;;;;;;7.93;71.60;101030.34;4950429;28;20133;-86
2022/04/17 07:19:03;;;;;;;7.55;5.93;;;;;;;7.87;72.97;101050.50;4975686;28;20031;-87
2022/04/17 07:21:33;;;;;;;7.70;5.63;;;;;;;7.53;72.71;101047.22;4973583;28;20035;-85
2022/04/17 07:24:16;;;;;;;7.63;5.60;;;;;;;7.58;73.92;101044.97;4948891;29;20483;-89
2022/04/17 07:26:58;;;;;;;14.00;5.60;;;;;;;7.72;73.24;101052.66;4932121;28;20053;-83
2022/04/17 07:29:23;;;;;;;8.60;5.78;;;;;;;7.42;74.62;101025.88;4957038;29;20513;-85
2022/04/17 07:31:50;;;;;;;8.30;5.60;;;;;;;7.54;74.60;101057.78;4925684;29;21569;-87
2022/04/17 07:34:19;;;;;;;7.93;4.80;;;;;;;7.32;74.39;101053.41;4957693;28;20325;-87
2022/04/17 07:36:56;;;;;;;6.68;5.18;;;;;;;7.21;75.26;101071.34;4955737;28;20508;-90
2022/04/17 07:39:23;;;;;;;7.20;5.38;;;;;;;7.10;75.38;101075.78;4895865;29;20035;-86
2022/04/17 07:42:04;;;;;;;6.57;4.88;;;;;;;7.07;75.66;101070.69;4898746;29;20039;-86
2022/04/17 07:44:32;;;;;;;7.30;5.05;;;;;;;7.12;75.96;101079.16;4935831;29;20062;-84
2022/04/17 07:47:20;;;;;;;6.53;4.63;;;;;;;7.07;75.13;101073.38;4935522;29;20132;-88
2022/04/17 07:49:57;;;;;;;8.05;5.72;;;;;;;7.17;77.72;101108.19;4932518;29;20505;-87
2022/04/17 07:52:25;;;;;;;8.10;5.13;;;;;;;7.12;76.56;101105.06;4945181;29;20055;-91
2022/04/17 07:54:55;;;;;;;6.55;4.53;;;;;;;6.90;77.15;101081.91;4928265;29;20525;-88
2022/04/17 07:57:26;;;;;;;7.88;4.38;;;;;;;6.97;74.93;101085.78;4958276;28;20039;-89
2022/04/17 07:59:55;;;;;;;5.72;4.03;;;;;;;6.91;74.64;101089.81;4922729;29;20032;-85
2022/04/17 08:02:38;;;;;;;6.22;4.00;;;;;;;6.90;75.46;101085.44;4927342;28;20035;-85
2022/04/17 08:05:07;;;;;;;5.22;3.65;;;;;;;6.95;74.88;101111.78;4919205;29;20046;-85
2022/04/17 08:07:34;;;;;;;6.40;4.13;;;;;;;6.88;75.34;101086.53;4951583;28;20047;-85
2022/04/17 08:10:19;;;;;;;7.68;4.53;;;;;;;7.00;75.12;101095.38;4920629;29;20035;-90
2022/04/17 08:12:51;;;;;;;7.25;5.18;;;;;;;6.79;75.60;101072.13;4944655;29;20035;-92
2022/04/17 08:15:20;;;;;;;6.93;4.97;;;;;;;6.59;75.40;101052.38;4940232;29;20055;-92
2022/04/17 08:17:45;;;;;;;6.63;4.63;;;;;;;7.00;75.67;101073.97;4939149;29;20063;-92
2022/04/17 08:20:16;;;;;;;;;;;;;;;7.10;75.23;101075.78;4935136;29;20050;-89
2022/04/17 08:22:50;;;;;;;10.20;6.35;;;;;;;6.92;75.52;101037.19;4933778;29;19905;-92
2022/04/17 08:25:17;;;;;;;6.18;3.58;;;;;;;7.27;73.48;101069.00;4975042;28;20040;-92
2022/04/17 08:28:00;;;;;;;6.60;4.65;;;;;;;7.15;75.47;101045.97;4932567;29;20066;-93
2022/04/17 08:30:42;;;;;;;6.32;4.25;;;;;;;7.11;73.40;101033.84;4948463;29;20040;-93
2022/04/17 08:33:09;;;;;;;5.47;3.92;;;;;;;7.06;73.81;101020.00;4957188;29;20042;-94
2022/04/17 08:35:41;;;;;;;;;;;;;;;7.22;73.78;101012.38;4940082;28;20042;-94
2022/04/17 08:38:24;;;;;;;6.97;4.53;;;;;;;6.98;75.05;100978.72;4973437;28;19925;-94
2022/04/17 08:40:59;;;;;;;6.10;4.28;;;;;;;7.13;74.11;100981.06;4934522;29;20115;-93
2022/04/17 08:46:06;;;;;;;6.60;5.25;;;;;;;6.73;75.06;100960.38;4947960;28;20027;-93
2022/04/17 08:48:38;;;;;;;9.40;5.43;;;;;;;6.58;75.15;100942.97;4928309;29;20117;-86
2022/04/17 08:51:05;;;;;;;9.80;6.90;;;;;;;6.88;76.67;100936.84;4939713;28;20062;-85
2022/04/17 08:53:40;;;;;;;9.43;6.78;;;;;;;6.92;76.27;100939.13;4941806;29;20416;-87
2022/04/17 08:56:15;;;;;;;10.23;7.30;;;;;;;7.13;75.72;100951.66;4929632;28;20145;-85
2022/04/17 08:58:41;;;;;;;8.43;5.50;;;;;;;6.92;73.52;100933.78;4931488;29;20106;-86
2022/04/17 09:01:13;;;;;;;7.70;5.90;;;;;;;6.99;74.02;100939.47;4955167;29;20035;-88
2022/04/17 09:03:41;;;;;;;10.38;6.85;;;;;;;7.07;74.51;100984.25;4917230;29;20286;-88
2022/04/17 09:06:12;;;;;;;8.55;6.63;;;;;;;6.90;74.41;100989.22;4916054;29;20059;-87
2022/04/17 09:08:40;;;;;;;9.48;5.88;;;;;;;7.07;74.18;100990.47;4903044;29;20047;-86
2022/04/17 09:11:08;;;;;;;12.35;6.78;;;;;;;6.88;74.65;100972.47;4908778;28;20032;-84
2022/04/17 09:13:35;;;;;;;8.90;6.68;;;;;;;6.95;76.16;100954.94;4918027;29;20039;-83
2022/04/17 09:16:03;;;;;;;9.70;6.75;;;;;;;7.06;73.47;100942.47;4931663;29;20066;-82
2022/04/17 09:18:35;;;;;;;7.05;5.20;;;;;;;7.28;72.62;100985.13;4907551;29;20042;-85
2022/04/17 09:21:07;;;;;;;7.70;5.28;;;;;;;7.31;73.13;100976.00;4931437;28;20067;-82
2022/04/17 09:23:40;;;;;;;7.32;5.63;;;;;;;7.50;73.48;100969.88;4942338;28;20117;-82
2022/04/17 09:26:06;;;;;;;7.13;4.93;;;;;;;7.54;71.50;100955.28;4908831;29;20054;-83
2022/04/17 09:28:37;;;;;;;7.97;4.82;;;;;;;7.47;71.32;100956.75;4932574;29;20039;-85
2022/04/17 09:31:15;;;;;;;8.02;5.00;;;;;;;7.49;72.32;100954.81;4942668;29;20078;-83
2022/04/17 09:33:49;;;;;;;6.22;4.82;;;;;;;7.51;71.62;100940.31;4936853;29;20036;-82
2022/04/17 09:36:15;;;;;;;6.15;4.72;;;;;;;7.28;73.39;100945.00;4920566;28;20065;-85
2022/04/17 09:38:41;;;;;;;7.53;4.95;;;;;;;7.23;73.84;100949.88;4903297;29;20035;-81
2022/04/17 09:41:10;;;;;;;6.35;4.38;;;;;;;7.42;73.65;100940.25;4918283;28;20058;-89
2022/04/17 09:43:37;;;;;;;5.50;4.10;;;;;;;7.32;72.20;100917.00;4914211;29;20117;-84
2022/04/17 09:46:26;;;;;;;6.38;3.97;;;;;;;7.47;71.87;100922.84;4920850;29;20070;-86
2022/04/17 09:49:00;;;;;;;5.63;3.85;;;;;;;7.51;71.09;100945.66;4952531;29;20482;-85
2022/04/17 09:51:30;;;;;;;8.40;4.93;;;;;;;7.38;71.76;100937.88;4915792;29;20047;-86
2022/04/17 09:54:06;;;;;;;9.07;4.38;;;;;;;7.54;72.46;100941.91;4946476;29;20428;-85
2022/04/17 09:56:39;;;;;;;5.70;4.00;;;;;;;7.62;71.43;100942.06;4915716;28;20416;-84
2022/04/17 09:59:30;;;;;;;5.10;3.58;;;;;;;7.66;70.94;100943.47;4919785;29;20050;-87
2022/04/17 10:01:56;;;;;;;4.85;3.63;;;;;;;7.75;70.75;100934.66;4907643;29;20047;-86
2022/04/17 10:04:24;;;;;;;;;;;;;;;7.89;69.46;100938.78;4927195;29;20075;-84
2022/04/17 10:06:52;;;;;;;4.40;3.20;;;;;;;7.91;70.10;100930.59;4925374;29;19914;-85
2022/04/17 10:09:19;;;;;;;6.40;3.30;;;;;;;7.95;70.37;100926.66;4935338;29;20023;-90
2022/04/17 10:11:47;;;;;;;4.93;3.38;;;;;;;7.94;68.63;100914.28;4917248;28;20115;-89
2022/04/17 10:14:24;;;;;;;4.90;3.50;;;;;;;7.87;69.93;100929.19;4930216;29;20053;-89
2022/04/17 10:16:56;;;;;;;5.13;3.42;;;;;;;7.56;70.51;100889.06;4923084;28;20058;-88
2022/04/17 10:19:24;;;;;;;5.45;3.90;;;;;;;7.66;70.05;100899.81;4905627;29;20097;-85
2022/04/17 10:21:58;;;;;;;5.57;3.92;;;;;;;7.68;70.86;100911.22;4936470;29;20023;-83
2022/04/17 10:24:26;;;;;;;4.32;3.17;;;;;;;7.75;69.52;100898.97;4926797;29;20042;-84
2022/04/17 10:26:54;;;;;;;4.82;3.60;;;;;;;7.58;69.69;100897.81;4946155;29;20040;-86
2022/04/17 10:29:34;;;;;;;4.68;3.50;;;;;;;7.53;70.32;100916.09;4929542;29;20066;-84
2022/04/17 10:32:38;;;;;;;5.55;4.10;;;;;;;7.27;72.69;100862.22;4937663;29;20412;-86
2022/04/17 10:35:45;;;;;;;6.30;4.32;;;;;;;7.37;72.38;100896.06;4943518;29;20036;-87
2022/04/17 10:38:23;;;;;;;5.57;3.60;;;;;;;7.37;72.58;100873.78;4932982;29;20039;-90
2022/04/17 10:41:10;;;;;;;4.63;3.47;;;;;;;7.37;72.25;100858.63;4926591;29;20038;-84
2022/04/17 10:43:56;;;;;;;4.93;3.38;;;;;;;7.23;71.26;100863.47;4952253;29;20488;-86
2022/04/17 10:46:26;;;;;;;4.72;3.55;;;;;;;7.20;72.86;100835.16;4928737;29;20484;-89
2022/04/17 10:48:55;;;;;;;5.30;3.35;;;;;;;7.42;71.91;100857.34;4967044;28;20139;-83
2022/04/17 10:51:52;;;;;;;5.70;3.30;;;;;;;7.51;71.34;100870.75;4941495;29;20064;-84
2022/04/17 10:54:47;;;;;;;5.55;3.50;;;;;;;7.39;70.94;100861.97;4940777;29;20027;-87
2022/04/17 10:57:12;;;;;;;4.97;3.25;;;;;;;7.18;72.15;100823.75;4923282;29;20493;-86
2022/04/17 10:59:45;;;;;;;6.63;3.35;;;;;;;7.43;71.25;100862.56;4911099;29;20121;-89
2022/04/17 11:02:19;;;;;;;5.70;3.20;;;;;;;7.72;71.15;100878.69;4913864;29;20058;-89
2022/04/17 11:04:53;;;;;;;4.18;2.92;;;;;;;7.70;70.45;100874.47;4966303;29;20027;-85
2022/04/17 11:07:28;;;;;;;4.40;3.25;;;;;;;7.51;71.76;100859.19;4958955;29;20026;-84
2022/04/17 11:10:32;;;;;;;4.43;3.10;;;;;;;7.43;70.81;100869.75;4940886;29;20039;-85
2022/04/17 11:12:58;;;;;;;4.88;2.78;;;;;;;7.39;70.19;100861.97;4949820;28;20050;-85
2022/04/17 11:15:30;;;;;;;5.10;3.42;;;;;;;7.16;71.64;100877.38;4921137;29;20035;-89
2022/04/17 11:17:57;;;;;;;5.30;3.50;;;;;;;7.30;73.21;100872.63;4936414;29;20050;-86
2022/04/17 11:20:26;;;;;;;6.93;4.00;;;;;;;7.33;73.05;100881.25;4907819;29;20038;-84
2022/04/17 11:22:52;;;;;;;5.00;3.80;;;;;;;7.41;72.76;100869.88;4926905;29;20035;-87
2022/04/17 11:25:23;;;;;;;8.93;5.70;;;;;;;7.43;71.78;100894.66;4947706;29;20140;-91
2022/04/17 11:27:58;;;;;;;5.10;3.40;;;;;;;7.27;72.63;100892.47;4958341;29;20106;-88
2022/04/17 11:30:30;;;;;;;5.10;3.70;;;;;;;7.01;73.23;100907.28;4910705;29;20083;-90
2022/04/17 11:32:58;;;;;;;5.35;3.80;;;;;;;6.83;74.04;100902.50;4922025;29;20047;-87
2022/04/17 11:35:24;;;;;;;5.32;3.60;;;;;;;6.80;73.55;100904.59;4935727;29;20043;-86
2022/04/17 11:37:54;;;;;;;;;;;;;;;6.84;72.59;100909.56;4936460;29;20055;-89
2022/04/17 11:40:27;;;;;;;6.82;4.53;;;;;;;6.73;74.64;100897.09;4938467;29;19925;-88
2022/04/17 11:43:11;;;;;;;6.50;4.65;;;;;;;6.76;74.34;100907.53;4952971;28;20038;-88
2022/04/17 11:45:39;;;;;;;5.72;3.88;;;;;;;6.63;73.28;100909.56;4921187;29;20094;-87
2022/04/17 11:48:09;;;;;;;6.22;3.80;;;;;;;6.46;73.10;100904.75;4922343;29;20043;-89
2022/04/17 11:50:35;;;;;;;4.57;3.40;;;;;;;6.47;73.50;100906.47;4906032;29;20054;-85
2022/04/17 11:53:11;;;;;;;5.30;3.58;;;;;;;6.36;72.66;100882.47;4917589;29;20113;-87
2022/04/17 11:55:38;;;;;;;5.35;3.60;;;;;;;6.27;74.05;100898.28;4924926;29;20039;-86
2022/04/17 11:58:09;;;;;;;5.95;3.72;;;;;;;6.26;73.75;100893.09;4955698;28;20039;-84
2022/04/17 12:00:34;;;;;;;6.45;4.10;;;;;;;6.30;73.49;100894.53;4922291;29;20031;-87
2022/04/17 12:03:01;;;;;;;5.35;3.80;;;;;;;6.26;74.24;100899.28;4933632;28;20421;-85
2022/04/17 12:05:32;;;;;;;5.25;3.75;;;;;;;6.24;74.06;100879.84;4951187;29;20047;-86